Time;durP1;ratioP1;P1;durP2;ratioP2;P2;SDS_P1;SDS_P2;PMS_P1;PMS_P2;Temp;Humidity;BMP_temperature;BMP_pressure;BME280_temperature;BME280_humidity;BME280_pressure;Samples;Min_cycle;Max_cycle;Signal;HPM_P1;HPM_P2
2023/01/14 00:00:50;;;;;;;13.60;2.90;;;9.00;99.90;;;;;;5042849;28;20464;-73
2023/01/14 00:03:35;;;;;;;19.10;3.15;;;9.00;99.90;;;;;;5050678;28;20546;-73
2023/01/14 00:06:24;;;;;;;10.97;3.33;;;9.00;99.90;;;;;;5055383;28;20793;-73
2023/01/14 00:09:12;;;;;;;13.27;3.00;;;9.00;99.90;;;;;;5055804;28;20785;-73
2023/01/14 00:11:58;;;;;;;16.00;3.10;;;8.90;99.90;;;;;;5065841;28;20571;-73
2023/01/14 00:14:43;;;;;;;13.73;3.53;;;9.00;99.90;;;;;;5050585;28;20419;-73
2023/01/14 00:17:29;;;;;;;15.77;4.93;;;8.90;99.90;;;;;;5053085;28;20435;-73
2023/01/14 00:20:15;;;;;;;9.53;2.40;;;8.90;99.90;;;;;;5058482;28;21025;-73
2023/01/14 00:23:02;;;;;;;9.03;3.20;;;8.90;99.90;;;;;;5060252;28;20975;-73
2023/01/14 00:25:48;;;;;;;14.13;4.40;;;8.90;99.90;;;;;;5058498;28;20456;-73
2023/01/14 00:28:33;;;;;;;10.80;2.87;;;8.80;99.90;;;;;;5044200;28;20567;-73
2023/01/14 00:31:21;;;;;;;10.57;2.27;;;8.80;99.90;;;;;;5052874;28;20438;-73
2023/01/14 00:34:07;;;;;;;6.60;2.67;;;8.80;99.90;;;;;;5048341;28;20492;-73
2023/01/14 00:36:53;;;;;;;12.83;3.80;;;8.80;99.90;;;;;;5069682;28;20607;-73
2023/01/14 00:39:40;;;;;;;21.77;3.57;;;8.80;99.90;;;;;;5050650;28;20483;-73
2023/01/14 00:42:25;;;;;;;8.93;2.43;;;8.70;99.90;;;;;;5074398;28;20569;-73
2023/01/14 00:45:11;;;;;;;16.13;4.00;;;8.70;99.90;;;;;;5054452;28;20439;-73
2023/01/14 00:47:57;;;;;;;22.00;3.00;;;8.80;99.90;;;;;;5066414;28;20450;-73
2023/01/14 00:50:43;;;;;;;11.70;2.80;;;8.80;99.90;;;;;;5061099;28;20466;-73
2023/01/14 00:53:29;;;;;;;12.50;3.43;;;8.80;99.90;;;;;;5060564;28;20423;-73
2023/01/14 00:56:18;;;;;;;19.30;2.90;;;8.80;99.90;;;;;;5054941;28;20454;-73
2023/01/14 00:59:03;;;;;;;12.47;3.70;;;8.80;99.90;;;;;;5045394;28;20553;-73
2023/01/14 01:01:51;;;;;;;11.40;2.97;;;8.80;99.90;;;;;;5049057;28;20457;-73
2023/01/14 01:04:37;;;;;;;26.10;3.70;;;8.80;99.90;;;;;;5048567;28;20486;-73
2023/01/14 01:07:22;;;;;;;10.67;3.03;;;8.90;99.90;;;;;;5056356;28;20528;-73
2023/01/14 01:10:10;;;;;;;16.53;3.73;;;8.80;99.90;;;;;;5049947;28;20459;-73
2023/01/14 01:12:57;;;;;;;19.47;3.10;;;8.90;99.90;;;;;;5056411;28;20431;-73
2023/01/14 01:15:43;;;;;;;13.53;2.80;;;8.80;99.90;;;;;;5062977;28;20423;-75
2023/01/14 01:18:29;;;;;;;17.97;4.57;;;8.80;99.90;;;;;;5061356;28;20524;-75
2023/01/14 01:21:16;;;;;;;11.87;3.10;;;8.70;99.90;;;;;;5051263;28;20505;-75
2023/01/14 01:24:01;;;;;;;7.70;2.73;;;8.60;99.90;;;;;;5062170;28;20430;-73
2023/01/14 01:26:48;;;;;;;15.00;4.23;;;8.60;99.90;;;;;;5069541;28;20489;-75
2023/01/14 01:29:35;;;;;;;13.53;2.93;;;8.60;99.90;;;;;;5058801;28;20470;-73
2023/01/14 01:32:20;;;;;;;9.53;2.53;;;8.70;99.90;;;;;;5059996;28;20501;-73
2023/01/14 01:35:06;;;;;;;11.70;3.57;;;8.60;99.90;;;;;;5070138;28;20437;-73
2023/01/14 01:37:52;;;;;;;22.10;3.27;;;8.70;99.90;;;;;;5046923;28;20464;-74
2023/01/14 01:40:38;;;;;;;10.60;3.00;;;8.70;99.90;;;;;;5052408;28;20486;-74
2023/01/14 01:43:27;;;;;;;20.67;3.57;;;8.60;99.90;;;;;;5056828;28;20462;-74
2023/01/14 01:46:14;;;;;;;12.90;3.00;;;8.50;99.90;;;;;;5058964;28;20956;-74
2023/01/14 01:49:05;;;;;;;10.53;2.30;;;8.50;99.90;;;;;;5047675;28;20796;-74
2023/01/14 01:51:55;;;;;;;11.70;3.23;;;8.60;99.90;;;;;;5042464;28;20451;-74
2023/01/14 01:54:46;;;;;;;21.00;2.93;;;8.50;99.90;;;;;;5059748;28;20482;-74
2023/01/14 01:57:32;;;;;;;21.23;2.97;;;8.60;99.90;;;;;;5056053;28;20516;-74
2023/01/14 02:00:18;;;;;;;10.07;3.27;;;8.60;99.90;;;;;;5049904;28;20566;-74
2023/01/14 02:03:11;;;;;;;17.90;2.90;;;8.60;99.90;;;;;;5053344;28;20442;-74
2023/01/14 02:05:56;;;;;;;13.23;3.40;;;8.60;99.90;;;;;;5048471;28;20419;-74
2023/01/14 02:08:45;;;;;;;10.77;2.63;;;8.60;99.90;;;;;;5038903;28;20594;-74
2023/01/14 02:11:55;;;;;;;12.23;3.10;;;8.50;99.90;;;;;;5050740;28;20606;-74
2023/01/14 02:14:54;;;;;;;14.93;2.60;;;8.50;99.90;;;;;;5054305;28;20914;-74
2023/01/14 02:17:47;;;;;;;17.00;3.30;;;8.50;99.90;;;;;;5045180;28;20436;-74
2023/01/14 02:20:39;;;;;;;17.50;4.80;;;8.40;99.90;;;;;;5050171;28;20518;-74
2023/01/14 02:23:51;;;;;;;17.23;3.00;;;8.40;99.90;;;;;;5066572;28;20415;-74
2023/01/14 02:27:09;;;;;;;12.53;3.00;;;8.40;99.90;;;;;;5066745;28;20409;-74
2023/01/14 02:30:29;;;;;;;7.67;3.53;;;8.40;99.90;;;;;;5069763;28;20435;-74
2023/01/14 02:33:31;;;;;;;12.93;3.20;;;8.40;99.90;;;;;;5061108;28;20440;-74
2023/01/14 02:36:28;;;;;;;10.23;3.23;;;8.20;99.90;;;;;;5050098;28;20486;-74
2023/01/14 02:39:20;;;;;;;21.20;4.20;;;8.10;99.90;;;;;;5053142;28;20467;-74
2023/01/14 02:45:25;;;;;;;21.38;3.70;;;8.00;99.90;;;;;;5039883;28;20537;-74
2023/01/14 02:48:12;;;;;;;16.37;3.90;;;8.00;99.90;;;;;;5052666;28;20974;-74
2023/01/14 02:50:58;;;;;;;16.87;3.70;;;7.90;99.90;;;;;;5050394;28;20478;-74
2023/01/14 02:53:43;;;;;;;12.00;2.63;;;7.90;99.90;;;;;;5046172;28;20451;-74
2023/01/14 02:56:29;;;;;;;14.80;4.17;;;7.90;99.90;;;;;;5052796;28;20564;-74
2023/01/14 02:59:42;;;;;;;10.47;3.17;;;7.90;99.90;;;;;;5046185;28;20876;-74
2023/01/14 03:02:52;;;;;;;24.08;3.25;;;7.90;99.90;;;;;;5051496;28;20444;-74
2023/01/14 03:06:04;;;;;;;22.97;3.93;;;8.00;99.90;;;;;;5045009;28;20209;-75
2023/01/14 03:08:57;;;;;;;20.27;5.20;;;8.10;99.90;;;;;;5045763;28;20508;-74
2023/01/14 03:11:46;;;;;;;15.37;3.70;;;8.10;99.90;;;;;;5053863;28;20447;-74
2023/01/14 03:14:39;;;;;;;20.80;4.05;;;8.10;99.90;;;;;;5051071;28;20421;-74
2023/01/14 03:17:31;;;;;;;17.63;3.27;;;8.10;99.90;;;;;;5058145;28;20209;-74
2023/01/14 03:20:23;;;;;;;17.53;4.20;;;8.10;99.90;;;;;;5053269;28;20474;-74
2023/01/14 03:23:13;;;;;;;11.00;2.67;;;8.10;99.90;;;;;;5057060;28;20493;-74
2023/01/14 03:26:00;;;;;;;17.30;2.43;;;7.90;99.90;;;;;;5048344;28;20957;-74
2023/01/14 03:28:48;;;;;;;14.00;3.90;;;7.90;99.90;;;;;;5045874;28;20443;-74
2023/01/14 03:31:38;;;;;;;14.87;2.40;;;7.90;99.90;;;;;;5060713;28;20477;-74
2023/01/14 03:34:29;;;;;;;14.97;3.07;;;8.00;99.90;;;;;;5060755;28;20452;-74
2023/01/14 03:37:18;;;;;;;15.40;4.33;;;8.00;99.90;;;;;;5055240;28;20451;-74
2023/01/14 03:40:11;;;;;;;22.40;3.33;;;7.90;99.90;;;;;;5051652;28;20471;-74
2023/01/14 03:43:01;;;;;;;6.27;2.37;;;7.90;99.90;;;;;;5064968;28;20434;-74
2023/01/14 03:45:47;;;;;;;13.70;3.40;;;7.80;99.90;;;;;;5049889;28;20545;-75
2023/01/14 03:48:33;;;;;;;16.10;3.73;;;7.60;99.90;;;;;;5061201;28;20446;-74
2023/01/14 03:51:24;;;;;;;13.75;3.85;;;7.70;99.90;;;;;;5055293;28;20562;-74
2023/01/14 03:54:21;;;;;;;15.45;3.20;;;7.70;99.90;;;;;;5061486;28;20350;-73
2023/01/14 03:57:11;;;;;;;11.45;2.38;;;7.70;99.90;;;;;;5055142;28;20702;-74
2023/01/14 04:00:01;;;;;;;23.33;3.50;;;7.60;99.90;;;;;;5049965;28;20228;-74
2023/01/14 04:02:48;;;;;;;17.47;4.03;;;7.60;99.90;;;;;;5053325;28;20348;-74
2023/01/14 04:05:33;;;;;;;19.47;3.23;;;7.60;99.90;;;;;;5059601;28;20492;-74
2023/01/14 04:08:21;;;;;;;9.10;2.57;;;7.60;99.90;;;;;;5046072;28;20949;-74
2023/01/14 04:11:10;;;;;;;10.97;3.47;;;7.70;99.90;;;;;;5034859;28;20496;-74
2023/01/14 04:16:58;;;;;;;12.73;3.00;;;7.60;99.90;;;;;;5040252;28;20486;-74
2023/01/14 04:19:44;;;;;;;19.30;3.03;;;7.60;99.90;;;;;;5063137;22;20530;-75
2023/01/14 04:22:29;;;;;;;12.07;3.20;;;7.50;99.90;;;;;;5065524;28;20458;-76
2023/01/14 04:25:15;;;;;;;13.87;3.13;;;7.60;99.90;;;;;;5065250;28;21163;-75
2023/01/14 04:28:02;;;;;;;11.27;3.45;;;7.60;99.90;;;;;;5061521;28;20447;-75
2023/01/14 04:30:49;;;;;;;22.20;3.00;;;7.60;99.90;;;;;;5065823;28;20809;-76
2023/01/14 04:33:35;;;;;;;14.55;3.22;;;7.50;99.90;;;;;;5061046;28;20454;-75
2023/01/14 04:36:21;;;;;;;12.93;3.47;;;7.50;99.90;;;;;;5053233;28;20519;-75
2023/01/14 04:39:06;;;;;;;14.37;3.50;;;7.50;99.90;;;;;;5055951;28;20557;-76
2023/01/14 04:44:58;;;;;;;11.60;3.20;;;7.50;99.90;;;;;;5067513;28;20474;-75
2023/01/14 04:47:44;;;;;;;16.53;4.67;;;7.50;99.90;;;;;;5057887;28;20454;-75
2023/01/14 04:50:33;;;;;;;12.13;3.43;;;7.50;99.90;;;;;;5064683;28;20580;-76
2023/01/14 04:53:21;;;;;;;13.63;3.20;;;7.70;99.90;;;;;;5054774;28;20452;-75
2023/01/14 04:56:08;;;;;;;9.73;2.60;;;7.60;99.90;;;;;;5059319;28;20554;-75
2023/01/14 04:58:53;;;;;;;15.50;2.93;;;7.50;99.90;;;;;;5065012;28;20445;-76
2023/01/14 05:01:40;;;;;;;18.50;4.30;;;7.50;99.90;;;;;;5067792;28;20470;-76
2023/01/14 05:04:26;;;;;;;13.07;2.80;;;7.60;99.90;;;;;;5059346;28;21252;-75
2023/01/14 05:07:12;;;;;;;22.75;3.75;;;7.70;99.90;;;;;;5054931;28;20979;-75
2023/01/14 05:09:57;;;;;;;10.55;3.20;;;7.70;99.90;;;;;;5061838;28;20221;-76
2023/01/14 05:12:55;;;;;;;16.05;2.97;;;7.80;99.90;;;;;;5071515;28;20193;-76
2023/01/14 05:15:43;;;;;;;10.80;3.37;;;7.80;99.90;;;;;;5065783;28;20273;-76
2023/01/14 05:18:30;;;;;;;21.00;3.03;;;7.80;99.90;;;;;;5069359;28;20442;-75
2023/01/14 05:21:17;;;;;;;12.87;2.93;;;7.80;99.90;;;;;;5071967;28;20483;-75
2023/01/14 05:24:03;;;;;;;12.00;3.23;;;7.80;99.90;;;;;;5062139;28;20470;-76
2023/01/14 05:26:49;;;;;;;14.20;2.53;;;7.90;99.90;;;;;;5067108;28;20430;-75
2023/01/14 05:29:36;;;;;;;17.03;4.30;;;7.80;99.90;;;;;;5061075;28;20427;-75
2023/01/14 05:32:22;;;;;;;14.30;3.67;;;7.80;99.90;;;;;;5073111;28;20450;-75
2023/01/14 05:35:10;;;;;;;9.53;2.93;;;7.90;99.90;;;;;;5087097;28;20581;-78
2023/01/14 05:37:56;;;;;;;12.57;3.20;;;7.90;99.90;;;;;;5054350;28;20870;-74
2023/01/14 05:40:44;;;;;;;9.80;2.43;;;7.90;99.90;;;;;;5067433;28;20996;-75
2023/01/14 05:46:33;;;;;;;11.57;2.43;;;8.00;99.90;;;;;;5075857;28;20441;-75
2023/01/14 05:49:18;;;;;;;17.73;3.40;;;8.10;99.90;;;;;;5067870;28;20421;-75
2023/01/14 05:52:06;;;;;;;15.20;2.80;;;8.10;99.90;;;;;;5072043;28;20834;-75
2023/01/14 05:54:51;;;;;;;18.33;3.50;;;8.00;99.90;;;;;;5081335;28;20560;-76
2023/01/14 05:57:37;;;;;;;9.63;2.70;;;8.00;99.90;;;;;;5060919;28;20447;-75
2023/01/14 06:06:33;;;;;;;15.70;2.93;;;8.00;99.90;;;;;;5060010;28;20500;-75
2023/01/14 06:09:20;;;;;;;8.37;3.20;;;8.10;99.90;;;;;;5059571;28;20447;-74
2023/01/14 06:12:07;;;;;;;13.07;2.80;;;8.10;99.90;;;;;;5063824;28;20588;-76
2023/01/14 06:14:52;;;;;;;20.15;2.97;;;8.10;99.90;;;;;;5059884;28;20568;-77
2023/01/14 06:17:45;;;;;;;17.40;3.38;;;8.10;99.90;;;;;;5060216;28;20565;-74
2023/01/14 06:20:32;;;;;;;9.77;2.43;;;8.00;99.90;;;;;;5060933;28;20779;-75
2023/01/14 06:23:19;;;;;;;13.50;3.47;;;7.90;99.90;;;;;;5060366;28;20451;-76
2023/01/14 06:26:10;;;;;;;18.90;3.57;;;7.90;99.90;;;;;;5057151;28;20447;-75
2023/01/14 06:28:58;;;;;;;9.80;3.20;;;8.00;99.90;;;;;;5065462;28;20446;-75
2023/01/14 06:31:44;;;;;;;7.22;2.53;;;7.90;99.90;;;;;;5070640;28;20584;-76
2023/01/14 06:34:29;;;;;;;12.37;3.40;;;7.90;99.90;;;;;;5059071;28;20208;-75
2023/01/14 06:37:15;;;;;;;10.70;2.73;;;8.00;99.90;;;;;;5068367;28;20445;-78
2023/01/14 06:40:01;;;;;;;14.07;3.13;;;7.90;99.90;;;;;;5064404;28;20479;-78
2023/01/14 06:42:48;;;;;;;12.20;2.53;;;7.90;99.90;;;;;;5068594;28;20485;-77
2023/01/14 06:45:34;;;;;;;18.13;3.27;;;7.80;99.90;;;;;;5066005;28;20455;-77
2023/01/14 06:48:20;;;;;;;13.40;3.10;;;7.90;99.90;;;;;;5064223;28;20445;-78
2023/01/14 06:51:06;;;;;;;8.37;1.83;;;7.90;99.90;;;;;;5064427;28;20527;-78
2023/01/14 06:53:52;;;;;;;9.27;3.33;;;7.80;99.90;;;;;;5061735;28;20605;-77
2023/01/14 06:56:38;;;;;;;20.10;4.53;;;7.80;99.90;;;;;;5059881;28;20520;-78
2023/01/14 06:59:25;;;;;;;15.93;3.30;;;7.90;99.90;;;;;;5069671;28;20946;-78
2023/01/14 07:02:12;;;;;;;8.20;2.63;;;8.00;99.90;;;;;;5075865;28;20474;-77
2023/01/14 07:04:57;;;;;;;16.70;2.33;;;7.90;99.90;;;;;;5063976;28;20470;-77
2023/01/14 07:07:46;;;;;;;20.17;3.80;;;8.00;99.90;;;;;;5065058;28;20454;-77
2023/01/14 07:10:31;;;;;;;7.07;2.22;;;7.90;99.90;;;;;;5063673;28;20459;-77
2023/01/14 07:13:17;;;;;;;14.88;2.97;;;7.90;99.90;;;;;;5065855;28;20269;-78
2023/01/14 07:16:04;;;;;;;15.18;3.97;;;8.00;99.90;;;;;;5066791;28;20319;-78
2023/01/14 07:18:50;;;;;;;11.10;2.00;;;8.10;99.90;;;;;;5069010;28;20335;-78
2023/01/14 07:21:36;;;;;;;15.65;2.50;;;8.10;99.90;;;;;;5062523;28;20474;-78
2023/01/14 07:24:22;;;;;;;8.33;3.27;;;8.10;99.90;;;;;;5063204;28;20207;-77
2023/01/14 07:27:07;;;;;;;16.90;3.33;;;8.10;99.90;;;;;;5076449;28;20450;-76
2023/01/14 07:29:53;;;;;;;17.00;2.80;;;8.10;99.90;;;;;;5077365;28;20502;-78
2023/01/14 07:32:40;;;;;;;9.77;2.50;;;8.20;99.90;;;;;;5073873;28;20438;-78
2023/01/14 07:35:26;;;;;;;9.00;2.80;;;8.20;99.90;;;;;;5060817;28;20443;-77
2023/01/14 07:38:12;;;;;;;15.53;3.60;;;8.20;99.90;;;;;;5077480;28;20468;-77
2023/01/14 07:40:59;;;;;;;12.93;3.40;;;8.30;99.90;;;;;;5071375;28;20632;-76
2023/01/14 07:43:45;;;;;;;17.33;3.90;;;8.20;99.90;;;;;;5074053;28;20513;-77
2023/01/14 07:46:30;;;;;;;10.87;2.93;;;8.30;99.90;;;;;;5081008;28;21085;-77
2023/01/14 07:49:17;;;;;;;10.90;3.17;;;8.30;99.90;;;;;;5080384;28;20978;-78
2023/01/14 07:52:03;;;;;;;15.00;4.20;;;8.30;99.90;;;;;;5088111;28;20541;-78
2023/01/14 07:54:49;;;;;;;13.03;4.13;;;8.40;99.90;;;;;;5073849;28;20945;-78
2023/01/14 07:57:34;;;;;;;17.65;3.92;;;8.40;99.90;;;;;;5062434;28;20451;-75
2023/01/14 08:00:21;;;;;;;20.80;3.42;;;8.40;99.90;;;;;;5063750;28;20250;-78
2023/01/14 08:03:06;;;;;;;16.07;3.27;;;8.50;99.90;;;;;;5061513;28;20286;-78
2023/01/14 08:05:53;;;;;;;14.30;3.40;;;8.40;99.90;;;;;;5072870;28;20480;-77
2023/01/14 08:08:39;;;;;;;11.17;2.20;;;8.30;99.90;;;;;;5079877;28;20426;-78
2023/01/14 08:11:25;;;;;;;10.20;2.50;;;8.40;99.90;;;;;;5070869;28;20590;-76
2023/01/14 08:14:11;;;;;;;13.20;2.67;;;8.40;99.90;;;;;;5077473;28;20465;-77
2023/01/14 08:16:56;;;;;;;10.00;3.13;;;8.30;99.90;;;;;;5072236;28;20943;-77
2023/01/14 08:19:43;;;;;;;13.13;2.40;;;8.30;99.90;;;;;;5082981;28;20306;-78
2023/01/14 08:22:30;;;;;;;11.15;3.40;;;8.30;99.90;;;;;;5080395;28;20519;-77
2023/01/14 08:25:16;;;;;;;10.77;2.25;;;8.40;99.90;;;;;;5075195;28;20204;-76
2023/01/14 08:28:02;;;;;;;24.70;3.40;;;8.40;99.90;;;;;;5062465;28;20204;-78
2023/01/14 08:30:48;;;;;;;13.53;3.00;;;8.50;99.90;;;;;;5068386;28;20469;-78
2023/01/14 08:33:35;;;;;;;16.92;3.55;;;8.50;99.90;;;;;;5062770;28;20410;-78
2023/01/14 08:36:20;;;;;;;5.03;2.22;;;8.60;99.90;;;;;;5062247;28;20204;-77
2023/01/14 08:39:09;;;;;;;17.60;4.00;;;8.60;99.90;;;;;;5066022;28;20806;-77
2023/01/14 08:41:54;;;;;;;14.90;2.87;;;8.60;99.90;;;;;;5082830;28;20483;-76
2023/01/14 08:44:40;;;;;;;15.10;3.17;;;8.70;99.90;;;;;;5064238;28;20464;-76
2023/01/14 08:47:28;;;;;;;10.77;4.60;;;8.60;99.90;;;;;;5061243;28;20209;-77
2023/01/14 08:50:14;;;;;;;12.70;2.30;;;8.60;99.90;;;;;;5083941;28;20473;-77
2023/01/14 08:53:00;;;;;;;14.05;2.55;;;8.60;99.90;;;;;;5072910;28;20513;-76
2023/01/14 08:55:47;;;;;;;13.50;1.97;;;8.60;99.90;;;;;;5066700;28;20205;-77
2023/01/14 08:58:35;;;;;;;12.83;2.33;;;8.40;99.90;;;;;;5064205;28;20576;-76
2023/01/14 09:01:20;;;;;;;8.80;2.17;;;8.40;99.90;;;;;;5069854;28;20853;-77
2023/01/14 09:04:06;;;;;;;5.23;1.80;;;8.30;99.90;;;;;;5081766;28;20212;-77
2023/01/14 09:19:04;;;;;;;9.32;2.30;;;8.30;99.90;;;;;;5066606;28;20239;-75
2023/01/14 09:21:49;;;;;;;9.40;2.00;;;8.30;99.90;;;;;;5063371;28;20243;-77
2023/01/14 09:24:34;;;;;;;7.23;1.43;;;8.40;99.90;;;;;;5068510;28;20970;-76
2023/01/14 09:27:21;;;;;;;7.18;2.03;;;8.40;99.90;;;;;;5067995;28;20446;-77
2023/01/14 09:30:10;;;;;;;6.83;2.33;;;8.40;99.90;;;;;;5073094;28;20583;-77
2023/01/14 09:32:55;;;;;;;7.30;3.00;;;8.50;99.90;;;;;;5067164;28;20447;-77
2023/01/14 09:35:41;;;;;;;5.55;2.10;;;8.50;99.90;;;;;;5064137;28;20580;-78
2023/01/14 09:38:26;;;;;;;10.65;1.88;;;8.50;99.90;;;;;;5073126;28;20701;-77
2023/01/14 09:41:24;;;;;;;8.93;2.20;;;8.60;99.90;;;;;;5080343;28;20231;-77
2023/01/14 09:44:13;;;;;;;11.80;2.10;;;8.60;99.90;;;;;;5066371;28;20593;-77
2023/01/14 09:47:00;;;;;;;8.30;1.73;;;8.60;99.90;;;;;;5069736;28;20448;-76
2023/01/14 09:49:46;;;;;;;5.70;1.97;;;8.60;99.90;;;;;;5063610;28;20439;-76
2023/01/14 09:52:53;;;;;;;7.23;1.93;;;8.70;99.90;;;;;;5078891;28;20441;-77
2023/01/14 09:55:45;;;;;;;9.33;2.43;;;8.80;99.90;;;;;;5060905;28;20450;-76
2023/01/14 09:58:36;;;;;;;16.10;3.10;;;8.90;99.90;;;;;;5060635;28;20442;-75
2023/01/14 10:01:28;;;;;;;10.40;2.50;;;9.00;99.90;;;;;;5061418;28;20851;-76
2023/01/14 10:04:41;;;;;;;9.90;1.70;;;9.00;99.90;;;;;;5055367;28;20414;-75
2023/01/14 10:07:28;;;;;;;12.10;1.70;;;9.00;99.90;;;;;;5066702;28;20450;-76
2023/01/14 10:10:24;;;;;;;5.50;1.60;;;9.10;99.90;;;;;;5066902;28;20559;-75
2023/01/14 10:13:14;;;;;;;6.20;1.60;;;9.10;99.90;;;;;;5067604;28;20490;-76
2023/01/14 10:16:08;;;;;;;6.63;1.53;;;9.30;99.90;;;;;;5063733;28;20439;-76
2023/01/14 10:18:58;;;;;;;3.23;1.50;;;9.20;99.90;;;;;;5067514;28;20983;-76
2023/01/14 10:21:47;;;;;;;6.37;1.60;;;9.30;99.90;;;;;;5062366;28;20855;-74
2023/01/14 10:24:33;;;;;;;9.50;1.93;;;9.30;99.90;;;;;;5058239;28;20818;-74
2023/01/14 10:27:20;;;;;;;7.07;2.03;;;9.30;99.90;;;;;;5069750;28;20520;-73
2023/01/14 10:30:18;;;;;;;6.63;1.43;;;9.20;99.90;;;;;;5072913;28;20458;-74
2023/01/14 10:33:07;;;;;;;3.90;1.33;;;9.20;99.90;;;;;;5059572;28;20459;-74
2023/01/14 10:35:57;;;;;;;6.10;1.60;;;9.30;99.90;;;;;;5054101;28;20853;-74
2023/01/14 10:38:46;;;;;;;4.83;2.17;;;9.30;99.90;;;;;;5056206;28;20993;-74
2023/01/14 10:41:49;;;;;;;7.90;1.43;;;9.20;99.90;;;;;;5063766;28;20474;-73
2023/01/14 10:44:38;;;;;;;9.47;1.63;;;9.30;99.90;;;;;;5059605;28;20582;-73
2023/01/14 10:47:25;;;;;;;8.47;1.63;;;9.30;99.90;;;;;;5061805;28;20474;-74
2023/01/14 10:50:22;;;;;;;3.93;1.30;;;9.40;99.90;;;;;;5058574;28;20471;-74
2023/01/14 10:53:20;;;;;;;3.20;1.40;;;9.30;99.90;;;;;;5071488;28;20435;-74
2023/01/14 10:56:07;;;;;;;2.73;1.57;;;9.40;99.90;;;;;;5056494;28;20976;-73
2023/01/14 10:58:55;;;;;;;4.13;1.50;;;9.30;99.90;;;;;;5058156;28;20601;-74
2023/01/14 11:01:42;;;;;;;6.03;1.80;;;9.30;99.90;;;;;;5071319;28;20473;-74
2023/01/14 11:04:30;;;;;;;4.50;1.40;;;9.30;99.90;;;;;;5056027;28;20469;-73
2023/01/14 11:07:27;;;;;;;4.83;1.30;;;9.30;99.90;;;;;;5058753;28;20450;-73
2023/01/14 11:10:20;;;;;;;8.23;1.40;;;9.30;99.90;;;;;;5060841;28;20520;-74
2023/01/14 11:13:23;;;;;;;10.13;1.50;;;9.40;99.90;;;;;;5061573;28;20425;-73
2023/01/14 11:16:29;;;;;;;6.80;1.23;;;9.40;99.90;;;;;;5063770;28;20529;-74
2023/01/14 11:19:21;;;;;;;12.03;1.63;;;9.50;99.90;;;;;;5069084;28;20516;-74
2023/01/14 11:22:06;;;;;;;5.13;1.57;;;9.50;99.90;;;;;;5061171;28;20560;-74
2023/01/14 11:24:54;;;;;;;3.80;1.00;;;9.60;99.90;;;;;;5057858;28;20800;-74
2023/01/14 11:27:47;;;;;;;3.53;1.57;;;9.60;99.90;;;;;;5071060;28;20497;-74
2023/01/14 11:30:35;;;;;;;11.33;1.50;;;9.60;99.90;;;;;;5058326;28;20479;-73
2023/01/14 11:33:23;;;;;;;3.13;1.00;;;9.70;99.90;;;;;;5056453;28;20439;-73
2023/01/14 11:36:10;;;;;;;6.20;1.30;;;9.70;99.90;;;;;;5060234;28;20913;-74
2023/01/14 11:38:58;;;;;;;4.63;1.27;;;9.70;99.90;;;;;;5062937;28;20485;-75
2023/01/14 11:41:44;;;;;;;2.73;0.90;;;9.70;99.90;;;;;;5059743;28;20487;-75
2023/01/14 11:44:31;;;;;;;4.57;1.27;;;9.80;99.90;;;;;;5058949;28;20455;-73
2023/01/14 11:47:19;;;;;;;3.80;0.97;;;9.80;99.90;;;;;;5060903;28;20591;-74
2023/01/14 11:50:15;;;;;;;4.80;1.47;;;9.90;99.90;;;;;;5064890;28;20613;-74
2023/01/14 11:53:04;;;;;;;3.30;0.90;;;9.80;99.90;;;;;;5058869;28;20405;-74
2023/01/14 11:55:54;;;;;;;4.70;1.00;;;9.90;99.90;;;;;;5059241;28;20963;-74
2023/01/14 11:58:39;;;;;;;2.57;0.80;;;9.90;99.90;;;;;;5061011;28;20840;-74
2023/01/14 12:01:29;;;;;;;3.53;1.20;;;9.90;99.90;;;;;;5063823;28;20501;-75
2023/01/14 12:04:19;;;;;;;2.73;1.10;;;9.90;99.90;;;;;;5061886;28;20451;-73
2023/01/14 12:07:08;;;;;;;5.97;1.93;;;9.90;99.90;;;;;;5069937;28;20970;-73
2023/01/14 12:09:57;;;;;;;7.80;1.03;;;10.00;99.90;;;;;;5059555;28;20474;-73
2023/01/14 12:19:06;;;;;;;2.63;0.90;;;10.10;99.90;;;;;;5072711;28;20487;-75
2023/01/14 12:21:59;;;;;;;3.43;1.23;;;10.10;99.90;;;;;;5066633;28;20524;-76
2023/01/14 12:24:58;;;;;;;8.33;1.00;;;10.20;99.90;;;;;;5062059;28;20512;-75
2023/01/14 12:27:57;;;;;;;5.00;1.30;;;10.20;99.90;;;;;;5068228;28;20434;-73
2023/01/14 12:30:49;;;;;;;3.50;1.10;;;10.20;99.90;;;;;;5074274;28;20525;-73
2023/01/14 12:33:42;;;;;;;3.03;0.90;;;10.20;99.90;;;;;;5064047;28;20916;-74
2023/01/14 12:36:36;;;;;;;6.30;1.20;;;10.20;99.90;;;;;;5068452;28;20570;-74
2023/01/14 12:46:11;;;;;;;4.30;1.30;;;10.20;99.90;;;;;;5016167;28;20939;-73
2023/01/14 12:48:58;;;;;;;4.30;1.07;;;10.20;99.90;;;;;;5066282;28;20447;-75
2023/01/14 12:51:47;;;;;;;2.20;0.90;;;10.20;99.90;;;;;;5058634;28;20525;-76
2023/01/14 12:54:35;;;;;;;3.53;1.20;;;10.20;99.90;;;;;;5065497;28;20451;-74
2023/01/14 12:57:24;;;;;;;2.77;1.43;;;10.30;99.90;;;;;;5060288;28;20521;-74
2023/01/14 13:00:12;;;;;;;2.00;0.87;;;10.30;99.90;;;;;;5057958;28;20902;-75
2023/01/14 13:03:01;;;;;;;3.13;1.63;;;10.30;99.90;;;;;;5064242;28;20530;-74
2023/01/14 13:05:46;;;;;;;2.63;0.90;;;10.30;99.90;;;;;;5064785;28;21070;-74
2023/01/14 13:08:37;;;;;;;2.20;1.10;;;10.40;99.90;;;;;;5065121;28;20454;-75
2023/01/14 13:11:26;;;;;;;2.33;0.90;;;10.40;99.90;;;;;;5058073;28;21000;-74
2023/01/14 13:14:34;;;;;;;1.70;0.70;;;10.40;99.90;;;;;;5065967;28;20443;-76
2023/01/14 13:17:32;;;;;;;2.77;1.40;;;10.40;99.90;;;;;;5064950;28;21302;-74
2023/01/14 13:20:47;;;;;;;3.60;1.10;;;10.30;99.90;;;;;;5055688;28;20479;-74
2023/01/14 13:24:00;;;;;;;1.90;0.80;;;10.30;99.90;;;;;;5064288;28;20486;-74
2023/01/14 13:26:59;;;;;;;3.93;1.10;;;10.30;99.90;;;;;;5075347;28;20440;-74
2023/01/14 13:29:44;;;;;;;1.90;0.80;;;10.30;99.90;;;;;;5055524;28;20455;-74
2023/01/14 13:32:50;;;;;;;7.57;1.40;;;10.40;99.90;;;;;;5068267;28;20538;-74
2023/01/14 13:35:37;;;;;;;2.90;0.80;;;10.30;99.90;;;;;;5064365;28;20540;-74
2023/01/14 13:38:27;;;;;;;4.87;1.30;;;10.20;99.90;;;;;;5078192;28;20449;-73
2023/01/14 13:41:29;;;;;;;2.00;0.90;;;10.20;99.90;;;;;;5060966;28;21212;-74
2023/01/14 13:44:23;;;;;;;8.20;1.30;;;10.10;99.90;;;;;;5076254;28;20517;-74
2023/01/14 13:47:20;;;;;;;3.27;1.27;;;10.10;99.90;;;;;;5080946;28;20544;-74
2023/01/14 13:50:17;;;;;;;3.47;1.00;;;10.10;99.90;;;;;;5071581;28;20529;-75
2023/01/14 13:53:09;;;;;;;2.63;1.40;;;10.10;99.90;;;;;;5067508;28;20424;-73
2023/01/14 13:55:58;;;;;;;3.00;1.50;;;10.10;99.90;;;;;;5067409;28;20446;-72
2023/01/14 13:58:49;;;;;;;2.13;1.00;;;10.20;99.90;;;;;;5064803;28;20466;-72
2023/01/14 14:01:48;;;;;;;3.23;1.63;;;10.20;99.90;;;;;;5064037;28;20545;-73
2023/01/14 14:05:02;;;;;;;4.17;1.30;;;10.30;99.90;;;;;;5057079;28;20446;-72
2023/01/14 14:08:20;;;;;;;4.33;1.20;;;10.30;99.90;;;;;;5066118;28;20431;-73
2023/01/14 14:11:11;;;;;;;4.40;1.40;;;10.20;99.90;;;;;;5070069;28;20451;-72
2023/01/14 14:14:07;;;;;;;3.70;1.80;;;10.20;99.90;;;;;;5070390;28;20451;-73
2023/01/14 14:16:58;;;;;;;3.40;1.40;;;10.20;99.90;;;;;;5062324;28;20513;-73
2023/01/14 14:19:49;;;;;;;2.70;1.30;;;10.30;99.90;;;;;;5074809;28;20426;-73
2023/01/14 14:22:43;;;;;;;3.43;1.40;;;10.30;99.90;;;;;;5066071;28;20466;-73
2023/01/14 14:25:34;;;;;;;5.80;1.47;;;10.30;99.90;;;;;;5061351;28;20434;-74
2023/01/14 14:28:23;;;;;;;3.30;1.30;;;10.20;99.90;;;;;;5062848;28;20417;-73
2023/01/14 14:31:13;;;;;;;3.20;1.50;;;10.20;99.90;;;;;;5080379;28;20446;-72
2023/01/14 14:34:08;;;;;;;3.00;1.37;;;10.20;99.90;;;;;;5055803;28;20435;-73
2023/01/14 14:36:57;;;;;;;1.90;1.13;;;10.20;99.90;;;;;;5058749;28;20420;-73
2023/01/14 14:39:42;;;;;;;5.90;1.17;;;10.10;99.90;;;;;;5063107;28;20420;-72
2023/01/14 14:42:28;;;;;;;3.40;1.60;;;10.20;99.90;;;;;;5060856;28;20483;-73
2023/01/14 14:45:28;;;;;;;1.83;1.00;;;10.10;99.90;;;;;;5060705;28;20963;-72
2023/01/14 14:48:20;;;;;;;2.90;1.70;;;10.10;99.90;;;;;;5062592;28;20432;-72
2023/01/14 14:51:25;;;;;;;3.00;1.30;;;10.10;99.90;;;;;;5064483;28;20827;-72
2023/01/14 14:54:25;;;;;;;2.60;1.20;;;10.20;99.90;;;;;;5060371;28;20421;-73
2023/01/14 14:57:16;;;;;;;1.70;0.90;;;10.20;99.90;;;;;;5058755;28;20424;-72
2023/01/14 15:00:05;;;;;;;6.77;1.60;;;10.20;99.90;;;;;;5066488;28;20995;-72
2023/01/14 15:02:53;;;;;;;3.67;1.30;;;10.20;99.90;;;;;;5062849;28;20479;-72
2023/01/14 15:05:39;;;;;;;3.63;1.53;;;10.20;99.90;;;;;;5057251;28;20501;-72
2023/01/14 15:08:29;;;;;;;2.90;1.27;;;10.20;99.90;;;;;;5063861;28;20483;-73
2023/01/14 15:11:17;;;;;;;2.80;1.10;;;10.10;99.90;;;;;;5075410;28;20496;-73
2023/01/14 15:14:03;;;;;;;4.07;1.10;;;10.10;99.90;;;;;;5057820;28;20442;-72
2023/01/14 15:16:50;;;;;;;2.83;1.20;;;10.10;99.90;;;;;;5060108;28;20428;-73
2023/01/14 15:19:38;;;;;;;3.63;1.50;;;10.10;99.90;;;;;;5065502;28;20766;-72
2023/01/14 15:22:31;;;;;;;1.87;0.83;;;10.10;99.90;;;;;;5055782;28;20469;-72
2023/01/14 15:25:20;;;;;;;2.00;1.30;;;10.10;99.90;;;;;;5062885;28;20427;-73
2023/01/14 15:28:06;;;;;;;4.40;1.33;;;10.00;99.90;;;;;;5075344;28;20792;-72
2023/01/14 15:30:56;;;;;;;2.50;1.40;;;10.00;99.90;;;;;;5059770;28;20451;-73